Aspen Hill, Maryland
Current Conditions -  °F | °C
As of 7:15 AM on Wednesday 28 Jan 2015 (Local Time) from KGAI Reporting Station
Clear Clear  
Wind Chill:   Ceiling: Unl
Heat Index: 18°   Visibility: 10mi
Dew Point:   Wind: 14mph
Humidity: 58%   Direction: 310°NW
Pressure: 30.17"   Gusts: 20mph
Location:  39.08°N, 77.09°W
Report Text: KGAI 281215Z 31012G17KT 10SM CLR M08/M15 A3017 RMK AO1
Loading
Personal Weather Stations






























Interactive Weather Map New forecast layout! Learn more

10-Day Weather Forecast

Advertisements
Track Severe Weather on mobile